Celebrity Reflection — 9HA3047 — position and weather

sailwx.info

Track history (hours):
 
Tides and Currents Weather Stations Pressure Air Temp Water Temp Dewpoint Dewpoint Depression Visibility Wind Speed Wind Dir Waves Ship Positions

Celebrity Reflection

Last reported at 2019-Sep-21 06:00 UTC. Time now 2019-Sep-21 11:00 UTC.
Position N 36°06' W 004°54'.

Length 319 m; draft 8.6 m.

Type: Passenger vessel. MMSI: 229074000.

Wind from 240 at 10 knots

Barometer 1009.0 mb
Air temperature 22.0 ° C
Visibility: greater than 10.8 NM
Dewpoint 22.0 ° C
Water temperature 23.0 ° C

Date/timePositionNaut miles runAvg speedWind from/ knotsBaromVisibWave heightAir tempDewpointWater temp
2019-Sep-21 06:00N 36°06' W 004°54'14716.3 240 / 101009.010.8 22.022.023.0
2019-Sep-20 21:00N 36°30' W 001°54'13010.0 060 / 151014.010.8 25.025.024.0
2019-Sep-20 08:00N 38°18' W 000°24'22 3.2 040 / 81014.027.0 24.024.026.0
2019-Sep-20 01:00N 38°30' E 000°00'36 7.3 010 / 101013.0 0.3 23.016.525.0
2019-Sep-19 20:00N 39°06' E 000°06'2610.2 050 / 91016.0 5.4 25.025.025.0
2019-Sep-19 17:26N 39°26' W 000°16'2 5.7
2019-Sep-19 17:00N 39°28' W 000°18'0 0.0
2019-Sep-19 16:28N 39°28' W 000°18'0 0.0
2019-Sep-19 15:58N 39°28' W 000°18'0 0.0
2019-Sep-19 15:28N 39°28' W 000°18'0 0.0
2019-Sep-19 15:00N 39°28' W 000°18'0 0.0
2019-Sep-19 14:30N 39°28' W 000°18'0 0.0
2019-Sep-19 13:59N 39°28' W 000°18'0 0.0
2019-Sep-19 13:29N 39°28' W 000°18'0 0.0
2019-Sep-19 12:59N 39°28' W 000°18'0 0.0
2019-Sep-19 12:29N 39°28' W 000°18'0 0.0
2019-Sep-19 11:58N 39°28' W 000°18'0 0.0
2019-Sep-19 11:30N 39°28' W 000°18'0 0.0
2019-Sep-19 11:00N 39°28' W 000°18'0 0.0
2019-Sep-19 10:30N 39°28' W 000°18'0 0.0
2019-Sep-19 09:59N 39°28' W 000°18'0 0.0
2019-Sep-19 09:29N 39°28' W 000°18'0 0.0
2019-Sep-19 09:00N 39°28' W 000°18'0 0.0
2019-Sep-19 08:30N 39°28' W 000°18'0 0.0
2019-Sep-19 07:59N 39°28' W 000°18'0 0.0
2019-Sep-19 07:29N 39°28' W 000°18'4 7.3
2019-Sep-19 07:00N 39°24' W 000°18'4111.6 250 / 61014.027.0 23.023.026.0
2019-Sep-19 06:58N 39°28' W 000°18'0 0.0
2019-Sep-19 06:28N 39°28' W 000°18'0 0.0
2019-Sep-19 05:58N 39°28' W 000°18'0 0.0
2019-Sep-19 05:28N 39°28' W 000°18'0 0.0
2019-Sep-19 04:58N 39°28' W 000°18'0 0.6
2019-Sep-19 04:30N 39°27' W 000°18'2 3.1
2019-Sep-19 04:00N 39°26' W 000°17'611.4
2019-Sep-19 03:30N 39°29' W 000°11'714.5
2019-Sep-19 03:00N 39°34' W 000°04'6013.8
2019-Sep-18 22:40N 40°16' E 000°52'3211.8
2019-Sep-18 20:00N 40°36' E 001°24'832.7 090 / 131013.010.8 24.024.025.0
2019-Sep-18 19:44N 40°42' E 001°31'413.8
2019-Sep-18 19:28N 40°45' E 001°34'613.7
2019-Sep-18 19:00N 40°50' E 001°40'713.5
2019-Sep-18 18:30N 40°54' E 001°47'713.8
2019-Sep-18 18:00N 40°59' E 001°53'713.6
2019-Sep-18 17:30N 41°04' E 001°59'713.7
2019-Sep-18 17:00N 41°10' E 002°04'713.8
2019-Sep-18 16:29N 41°16' E 002°10'6 2.0
2019-Sep-18 13:30N 41°22' E 002°11'0 0.0
2019-Sep-18 13:00N 41°22' E 002°11'0 0.0
2019-Sep-18 12:29N 41°22' E 002°11'0 0.0
2019-Sep-18 11:59N 41°22' E 002°11'0 0.0
2019-Sep-18 11:29N 41°22' E 002°11'0 0.0
2019-Sep-18 10:58N 41°22' E 002°11'0 0.0
2019-Sep-18 10:28N 41°22' E 002°11'0 0.0
2019-Sep-18 09:58N 41°22' E 002°11'0 0.0
2019-Sep-18 09:28N 41°22' E 002°11'0 0.0
2019-Sep-18 09:00N 41°22' E 002°11'0 0.0
2019-Sep-18 08:30N 41°22' E 002°11'0 0.0
2019-Sep-18 07:59N 41°22' E 002°11'0 0.0
2019-Sep-18 07:29N 41°22' E 002°11'0 0.0
2019-Sep-18 06:58N 41°22' E 002°11'0 0.0
2019-Sep-18 06:30N 41°22' E 002°11'0 0.0
2019-Sep-18 06:00N 41°22' E 002°11'5782.9
2019-Sep-18 06:00N 41°18' E 002°06'510.1 170 / 41012.027.0 22.022.024.0
2019-Sep-18 05:30N 41°22' E 002°11'0 0.0
2019-Sep-18 05:00N 41°22' E 002°11'0 0.0
2019-Sep-18 04:30N 41°22' E 002°11'0 0.0
2019-Sep-18 04:00N 41°22' E 002°11'0 0.2
2019-Sep-18 03:30N 41°21' E 002°11'1 1.9
2019-Sep-18 03:00N 41°21' E 002°10'4 8.2
2019-Sep-18 02:30N 41°17' E 002°11'4 8.5
2019-Sep-18 02:00N 41°13' E 002°09'4 8.9
2019-Sep-18 01:30N 41°09' E 002°06'4 8.5
2019-Sep-18 01:00N 41°05' E 002°03'4 8.3
2019-Sep-18 00:30N 41°01' E 002°01'4 8.2
2019-Sep-18 00:00N 40°58' E 001°58'4 8.0
2019-Sep-17 23:27N 40°54' E 001°56'4 7.9
2019-Sep-17 22:54N 40°50' E 001°53'8 7.9
2019-Sep-17 21:57N 40°43' E 001°49'4 8.0
2019-Sep-17 21:30N 40°40' E 001°47'4 8.6
2019-Sep-17 21:00N 40°36' E 001°44'4 8.3
2019-Sep-17 20:30N 40°32' E 001°42'4 8.3
2019-Sep-17 20:00N 40°29' E 001°39'5 8.2
2019-Sep-17 19:24N 40°24' E 001°36'3 8.4
2019-Sep-17 19:00N 40°21' E 001°34'5290.2
2019-Sep-17 19:00N 40°18' E 001°30'10 5.8 260 / 81013.010.8 24.024.025.0
2019-Sep-17 17:18N 40°09' E 001°26'5 8.3
2019-Sep-17 16:43N 40°04' E 001°23'2 8.2
2019-Sep-17 16:30N 40°03' E 001°22'4 8.1
2019-Sep-17 16:00N 39°59' E 001°20'4 8.2
2019-Sep-17 15:30N 39°55' E 001°17'4 8.2
2019-Sep-17 15:00N 39°52' E 001°15'4 8.2
2019-Sep-17 14:30N 39°48' E 001°12'4 8.2
2019-Sep-17 14:00N 39°45' E 001°10'4 8.1
2019-Sep-17 13:30N 39°41' E 001°07'20 7.9
2019-Sep-17 11:00N 39°24' E 000°54'4110.1 310 / 81014.0 0.3 23.018.325.0
2019-Sep-17 07:00N 38°48' E 000°30'68 9.8 270 / 111015.027.0 24.024.025.0
2019-Sep-17 00:00N 37°48' W 000°12'23 4.6 210 / 41013.0 0.3 23.018.323.0
2019-Sep-16 19:00N 37°30' W 000°30'19 2.1 280 / 31015.010.8 25.025.025.0
2019-Sep-16 10:00N 37°30' W 000°54'0 0.0 170 / 51017.027.0 27.017.625.0
2019-Sep-16 07:00N 37°30' W 000°54'14714.7 070 / 31016.027.0 23.023.025.0
2019-Sep-15 21:00N 36°12' W 003°30'87 6.7 300 / 121016.0 2.2 24.024.024.0
2019-Sep-15 08:00N 36°06' W 005°18'49 5.0 160 / 41015.0 0.3 22.022.021.0
2019-Sep-14 22:19N 35°54' W 006°16'24 7.3
2019-Sep-14 19:00N 36°18' W 006°24'15 2.6 250 / 31015.027.0 24.024.023.0
2019-Sep-14 13:00N 36°30' W 006°12'68 7.5 320 / 101014.010.8 27.013.628.0
2019-Sep-14 03:51N 36°32' W 007°37'616.5
2019-Sep-14 03:29N 36°32' W 007°44'816.6
2019-Sep-14 03:00N 36°31' W 007°54'816.6
2019-Sep-14 02:30N 36°31' W 008°05'817.0
2019-Sep-14 02:00N 36°30' W 008°15'917.6
2019-Sep-14 01:30N 36°31' W 008°26'917.0
2019-Sep-14 01:00N 36°31' W 008°37'917.1
2019-Sep-14 00:30N 36°31' W 008°47'1019.1
2019-Sep-14 00:00N 36°30' W 008°59'1120.8
2019-Sep-13 23:27N 36°32' W 009°13'920.5
2019-Sep-13 23:00N 36°37' W 009°23'1121.2
2019-Sep-13 22:30N 36°45' W 009°32'1121.1
2019-Sep-13 22:00N 36°55' W 009°37'1021.2
2019-Sep-13 21:30N 37°05' W 009°35'1121.3
2019-Sep-13 21:00N 37°16' W 009°34'1121.3
2019-Sep-13 20:30N 37°26' W 009°32'1121.3
2019-Sep-13 20:00N 37°37' W 009°31'5334.8
2019-Sep-13 20:00N 37°42' W 009°30'511.1 010 / 171018.027.0 23.023.022.0
2019-Sep-13 19:30N 37°47' W 009°30'1121.4
2019-Sep-13 19:00N 37°58' W 009°28'1020.5
2019-Sep-13 18:30N 38°08' W 009°27'1019.6
2019-Sep-13 18:00N 38°18' W 009°26'1019.7
2019-Sep-13 17:30N 38°28' W 009°24'1019.6
2019-Sep-13 17:00N 38°37' W 009°22'816.3
2019-Sep-13 16:30N 38°41' W 009°12'4 8.4
2019-Sep-13 16:00N 38°43' W 009°07'0 0.1
2019-Sep-13 15:30N 38°43' W 009°07'0 0.0
2019-Sep-13 15:00N 38°43' W 009°07'0 0.0
2019-Sep-13 14:30N 38°43' W 009°07'0 0.0
2019-Sep-13 14:00N 38°43' W 009°07'0 0.0
2019-Sep-13 13:30N 38°43' W 009°07'0 0.0
2019-Sep-13 13:00N 38°43' W 009°07'0 0.0
2019-Sep-13 12:30N 38°43' W 009°07'0 0.0
2019-Sep-13 12:00N 38°43' W 009°07'0 0.0
2019-Sep-13 11:30N 38°43' W 009°07'0 0.0
2019-Sep-13 11:00N 38°43' W 009°07'0 0.0
2019-Sep-13 10:29N 38°43' W 009°07'0 0.0
2019-Sep-13 09:59N 38°43' W 009°07'0 0.0
2019-Sep-13 09:29N 38°43' W 009°07'0 0.0
2019-Sep-13 08:59N 38°43' W 009°07'0 0.0
2019-Sep-13 08:29N 38°43' W 009°07'1 2.7
2019-Sep-13 08:00N 38°42' W 009°06'143.5 020 / 141019.027.0 25.025.021.0
2019-Sep-13 07:58N 38°43' W 009°07'0 0.0
2019-Sep-13 07:29N 38°43' W 009°07'0 0.0
2019-Sep-13 07:00N 38°43' W 009°07'0 0.0
2019-Sep-13 06:30N 38°43' W 009°07'0 0.0
2019-Sep-13 06:00N 38°43' W 009°07'1 2.0
2019-Sep-13 05:30N 38°42' W 009°08'5 9.3
2019-Sep-13 05:00N 38°41' W 009°14'611.7
2019-Sep-13 04:31N 38°38' W 009°21'713.7
2019-Sep-13 04:01N 38°37' W 009°29'714.7
2019-Sep-13 03:31N 38°38' W 009°38'612.0
2019-Sep-13 03:00N 38°44' W 009°42'713.6
2019-Sep-13 02:30N 38°50' W 009°43'1414.1
2019-Sep-13 01:30N 39°04' W 009°45'714.1
2019-Sep-13 01:00N 39°11' W 009°46'714.2
2019-Sep-13 00:30N 39°18' W 009°47'714.4
2019-Sep-13 00:00N 39°26' W 009°47'814.7
2019-Sep-12 23:29N 39°33' W 009°48'714.7
2019-Sep-12 23:00N 39°40' W 009°48'2151.3
2019-Sep-12 23:00N 39°42' W 009°48'611.6 010 / 151022.010.8 23.010.322.0
2019-Sep-12 22:30N 39°48' W 009°49'714.3
2019-Sep-12 22:00N 39°55' W 009°50'7480.7
2019-Sep-12 22:00N 39°48' W 009°48'1428.9 010 / 221022.027.0 20.0 8.621.0
2019-Sep-12 21:30N 40°02' W 009°52'714.3
2019-Sep-12 21:00N 40°09' W 009°53'5324.9
2019-Sep-12 21:00N 40°12' W 009°48'510.2 010 / 211013.027.0 21.021.019.0
2019-Sep-12 20:29N 40°16' W 009°52'815.2
2019-Sep-12 19:59N 40°24' W 009°52'915.2
2019-Sep-12 19:25N 40°33' W 009°53'615.6
2019-Sep-12 19:00N 40°39' W 009°53'6913.8
2019-Sep-12 14:00N 41°48' W 010°00'1818.0 020 / 141025.027.0 20.020.018.0
2019-Sep-12 13:00N 42°06' W 010°00'11913.2 040 / 151026.027.0 17.011.518.0
2019-Sep-12 04:00N 43°48' W 008°36'24581.8 070 / 181027.027.0
2019-Sep-12 01:00N 43°18' W 003°00'7813.0 090 / 161025.0 0.3 17.0 7.020.0
2019-Sep-11 19:00N 43°42' W 004°42'5121.6 040 / 71029.027.0 19.019.022.0
2019-Sep-11 16:38N 43°35' W 003°32'220.4
2019-Sep-11 16:30N 43°34' W 003°29'1019.9
2019-Sep-11 16:00N 43°30' W 003°17'918.4
2019-Sep-11 15:30N 43°24' W 003°06'510.3
2019-Sep-11 15:00N 43°20' W 003°02'0 0.0
2019-Sep-11 14:28N 43°20' W 003°02'0 0.0
2019-Sep-11 13:58N 43°20' W 003°02'0 0.0
2019-Sep-11 13:28N 43°20' W 003°02'0 0.0
2019-Sep-11 12:58N 43°20' W 003°02'0 0.0
2019-Sep-11 12:22N 43°20' W 003°02'0 0.0
2019-Sep-11 11:58N 43°20' W 003°02'0 0.0
2019-Sep-11 11:28N 43°20' W 003°02'0 0.0
2019-Sep-11 11:00N 43°20' W 003°02'3181.2
2019-Sep-11 11:00N 43°18' W 003°00'3 5.6 340 / 151022.027.0 19.0 9.618.0
2019-Sep-11 10:30N 43°20' W 003°02'0 0.0
2019-Sep-11 10:00N 43°20' W 003°02'3177.9
2019-Sep-11 10:00N 43°18' W 003°00'3 5.6 340 / 151026.027.0 21.021.020.0
2019-Sep-11 09:30N 43°20' W 003°02'0 0.0
2019-Sep-11 08:54N 43°20' W 003°02'0 0.0
2019-Sep-11 08:30N 43°20' W 003°02'0 0.0
2019-Sep-11 08:00N 43°20' W 003°02'0 0.0
2019-Sep-11 07:30N 43°20' W 003°02'0 0.0
2019-Sep-11 06:58N 43°20' W 003°02'0 0.0
2019-Sep-11 06:26N 43°20' W 003°02'  
Track history (hours):
 
Tides and Currents Weather Stations Pressure Air Temp Water Temp Dewpoint Dewpoint Depression Visibility Wind Speed Wind Dir Waves Ship Positions

Celebrity Reflection

Last reported at 2019-Sep-21 06:00 UTC. Time now 2019-Sep-21 11:00 UTC.
Position N 36°06' W 004°54'.

Length 319 m; draft 8.6 m.

Type: Passenger vessel. MMSI: 229074000.

Wind from 240 at 10 knots

Barometer 1009.0 mb
Air temperature 22.0 ° C
Visibility: greater than 10.8 NM
Dewpoint 22.0 ° C
Water temperature 23.0 ° C

Date/timePositionNaut miles runAvg speedWind from/ knotsBaromVisibWave heightAir tempDewpointWater temp
2019-Sep-21 06:00N 36°06' W 004°54'14716.3 240 / 101009.010.8 22.022.023.0
2019-Sep-20 21:00N 36°30' W 001°54'13010.0 060 / 151014.010.8 25.025.024.0
2019-Sep-20 08:00N 38°18' W 000°24'22 3.2 040 / 81014.027.0 24.024.026.0
2019-Sep-20 01:00N 38°30' E 000°00'36 7.3 010 / 101013.0 0.3 23.016.525.0
2019-Sep-19 20:00N 39°06' E 000°06'2610.2 050 / 91016.0 5.4 25.025.025.0
2019-Sep-19 17:26N 39°26' W 000°16'2 5.7
2019-Sep-19 17:00N 39°28' W 000°18'0 0.0
2019-Sep-19 16:28N 39°28' W 000°18'0 0.0
2019-Sep-19 15:58N 39°28' W 000°18'0 0.0
2019-Sep-19 15:28N 39°28' W 000°18'0 0.0
2019-Sep-19 15:00N 39°28' W 000°18'0 0.0
2019-Sep-19 14:30N 39°28' W 000°18'0 0.0
2019-Sep-19 13:59N 39°28' W 000°18'0 0.0
2019-Sep-19 13:29N 39°28' W 000°18'0 0.0
2019-Sep-19 12:59N 39°28' W 000°18'0 0.0
2019-Sep-19 12:29N 39°28' W 000°18'0 0.0
2019-Sep-19 11:58N 39°28' W 000°18'0 0.0
2019-Sep-19 11:30N 39°28' W 000°18'0 0.0
2019-Sep-19 11:00N 39°28' W 000°18'0 0.0
2019-Sep-19 10:30N 39°28' W 000°18'0 0.0
2019-Sep-19 09:59N 39°28' W 000°18'0 0.0
2019-Sep-19 09:29N 39°28' W 000°18'0 0.0
2019-Sep-19 09:00N 39°28' W 000°18'0 0.0
2019-Sep-19 08:30N 39°28' W 000°18'0 0.0
2019-Sep-19 07:59N 39°28' W 000°18'0 0.0
2019-Sep-19 07:29N 39°28' W 000°18'4 7.3
2019-Sep-19 07:00N 39°24' W 000°18'4111.6 250 / 61014.027.0 23.023.026.0
2019-Sep-19 06:58N 39°28' W 000°18'0 0.0
2019-Sep-19 06:28N 39°28' W 000°18'0 0.0
2019-Sep-19 05:58N 39°28' W 000°18'0 0.0
2019-Sep-19 05:28N 39°28' W 000°18'0 0.0
2019-Sep-19 04:58N 39°28' W 000°18'0 0.6
2019-Sep-19 04:30N 39°27' W 000°18'2 3.1
2019-Sep-19 04:00N 39°26' W 000°17'611.4
2019-Sep-19 03:30N 39°29' W 000°11'714.5
2019-Sep-19 03:00N 39°34' W 000°04'6013.8
2019-Sep-18 22:40N 40°16' E 000°52'3211.8
2019-Sep-18 20:00N 40°36' E 001°24'832.7 090 / 131013.010.8 24.024.025.0
2019-Sep-18 19:44N 40°42' E 001°31'413.8
2019-Sep-18 19:28N 40°45' E 001°34'613.7
2019-Sep-18 19:00N 40°50' E 001°40'713.5
2019-Sep-18 18:30N 40°54' E 001°47'713.8
2019-Sep-18 18:00N 40°59' E 001°53'713.6
2019-Sep-18 17:30N 41°04' E 001°59'713.7
2019-Sep-18 17:00N 41°10' E 002°04'713.8
2019-Sep-18 16:29N 41°16' E 002°10'6 2.0
2019-Sep-18 13:30N 41°22' E 002°11'0 0.0
2019-Sep-18 13:00N 41°22' E 002°11'0 0.0
2019-Sep-18 12:29N 41°22' E 002°11'0 0.0
2019-Sep-18 11:59N 41°22' E 002°11'0 0.0
2019-Sep-18 11:29N 41°22' E 002°11'0 0.0
2019-Sep-18 10:58N 41°22' E 002°11'0 0.0
2019-Sep-18 10:28N 41°22' E 002°11'0 0.0
2019-Sep-18 09:58N 41°22' E 002°11'0 0.0
2019-Sep-18 09:28N 41°22' E 002°11'0 0.0
2019-Sep-18 09:00N 41°22' E 002°11'0 0.0
2019-Sep-18 08:30N 41°22' E 002°11'0 0.0
2019-Sep-18 07:59N 41°22' E 002°11'0 0.0
2019-Sep-18 07:29N 41°22' E 002°11'0 0.0
2019-Sep-18 06:58N 41°22' E 002°11'0 0.0
2019-Sep-18 06:30N 41°22' E 002°11'0 0.0
2019-Sep-18 06:00N 41°22' E 002°11'5782.9
2019-Sep-18 06:00N 41°18' E 002°06'510.1 170 / 41012.027.0 22.022.024.0
2019-Sep-18 05:30N 41°22' E 002°11'0 0.0
2019-Sep-18 05:00N 41°22' E 002°11'0 0.0
2019-Sep-18 04:30N 41°22' E 002°11'0 0.0
2019-Sep-18 04:00N 41°22' E 002°11'0 0.2
2019-Sep-18 03:30N 41°21' E 002°11'1 1.9
2019-Sep-18 03:00N 41°21' E 002°10'4 8.2
2019-Sep-18 02:30N 41°17' E 002°11'4 8.5
2019-Sep-18 02:00N 41°13' E 002°09'4 8.9
2019-Sep-18 01:30N 41°09' E 002°06'4 8.5
2019-Sep-18 01:00N 41°05' E 002°03'4 8.3
2019-Sep-18 00:30N 41°01' E 002°01'4 8.2
2019-Sep-18 00:00N 40°58' E 001°58'4 8.0
2019-Sep-17 23:27N 40°54' E 001°56'4 7.9
2019-Sep-17 22:54N 40°50' E 001°53'8 7.9
2019-Sep-17 21:57N 40°43' E 001°49'4 8.0
2019-Sep-17 21:30N 40°40' E 001°47'4 8.6
2019-Sep-17 21:00N 40°36' E 001°44'4 8.3
2019-Sep-17 20:30N 40°32' E 001°42'4 8.3
2019-Sep-17 20:00N 40°29' E 001°39'5 8.2
2019-Sep-17 19:24N 40°24' E 001°36'3 8.4
2019-Sep-17 19:00N 40°21' E 001°34'5290.2
2019-Sep-17 19:00N 40°18' E 001°30'10 5.8 260 / 81013.010.8 24.024.025.0
2019-Sep-17 17:18N 40°09' E 001°26'5 8.3
2019-Sep-17 16:43N 40°04' E 001°23'2 8.2
2019-Sep-17 16:30N 40°03' E 001°22'4 8.1
2019-Sep-17 16:00N 39°59' E 001°20'4 8.2
2019-Sep-17 15:30N 39°55' E 001°17'4 8.2
2019-Sep-17 15:00N 39°52' E 001°15'4 8.2
2019-Sep-17 14:30N 39°48' E 001°12'4 8.2
2019-Sep-17 14:00N 39°45' E 001°10'4 8.1
2019-Sep-17 13:30N 39°41' E 001°07'20 7.9
2019-Sep-17 11:00N 39°24' E 000°54'4110.1 310 / 81014.0 0.3 23.018.325.0
2019-Sep-17 07:00N 38°48' E 000°30'68 9.8 270 / 111015.027.0 24.024.025.0
2019-Sep-17 00:00N 37°48' W 000°12'23 4.6 210 / 41013.0 0.3 23.018.323.0
2019-Sep-16 19:00N 37°30' W 000°30'19 2.1 280 / 31015.010.8 25.025.025.0
2019-Sep-16 10:00N 37°30' W 000°54'0 0.0 170 / 51017.027.0 27.017.625.0
2019-Sep-16 07:00N 37°30' W 000°54'14714.7 070 / 31016.027.0 23.023.025.0
2019-Sep-15 21:00N 36°12' W 003°30'87 6.7 300 / 121016.0 2.2 24.024.024.0
2019-Sep-15 08:00N 36°06' W 005°18'49 5.0 160 / 41015.0 0.3 22.022.021.0
2019-Sep-14 22:19N 35°54' W 006°16'24 7.3
2019-Sep-14 19:00N 36°18' W 006°24'15 2.6 250 / 31015.027.0 24.024.023.0
2019-Sep-14 13:00N 36°30' W 006°12'68 7.5 320 / 101014.010.8 27.013.628.0
2019-Sep-14 03:51N 36°32' W 007°37'616.5
2019-Sep-14 03:29N 36°32' W 007°44'816.6
2019-Sep-14 03:00N 36°31' W 007°54'816.6
2019-Sep-14 02:30N 36°31' W 008°05'817.0
2019-Sep-14 02:00N 36°30' W 008°15'917.6
2019-Sep-14 01:30N 36°31' W 008°26'917.0
2019-Sep-14 01:00N 36°31' W 008°37'917.1
2019-Sep-14 00:30N 36°31' W 008°47'1019.1
2019-Sep-14 00:00N 36°30' W 008°59'1120.8
2019-Sep-13 23:27N 36°32' W 009°13'920.5
2019-Sep-13 23:00N 36°37' W 009°23'1121.2
2019-Sep-13 22:30N 36°45' W 009°32'1121.1
2019-Sep-13 22:00N 36°55' W 009°37'1021.2
2019-Sep-13 21:30N 37°05' W 009°35'1121.3
2019-Sep-13 21:00N 37°16' W 009°34'1121.3
2019-Sep-13 20:30N 37°26' W 009°32'1121.3
2019-Sep-13 20:00N 37°37' W 009°31'5334.8
2019-Sep-13 20:00N 37°42' W 009°30'511.1 010 / 171018.027.0 23.023.022.0
2019-Sep-13 19:30N 37°47' W 009°30'1121.4
2019-Sep-13 19:00N 37°58' W 009°28'1020.5
2019-Sep-13 18:30N 38°08' W 009°27'1019.6
2019-Sep-13 18:00N 38°18' W 009°26'1019.7
2019-Sep-13 17:30N 38°28' W 009°24'1019.6
2019-Sep-13 17:00N 38°37' W 009°22'816.3
2019-Sep-13 16:30N 38°41' W 009°12'4 8.4
2019-Sep-13 16:00N 38°43' W 009°07'0 0.1
2019-Sep-13 15:30N 38°43' W 009°07'0 0.0
2019-Sep-13 15:00N 38°43' W 009°07'0 0.0
2019-Sep-13 14:30N 38°43' W 009°07'0 0.0
2019-Sep-13 14:00N 38°43' W 009°07'0 0.0
2019-Sep-13 13:30N 38°43' W 009°07'0 0.0
2019-Sep-13 13:00N 38°43' W 009°07'0 0.0
2019-Sep-13 12:30N 38°43' W 009°07'0 0.0
2019-Sep-13 12:00N 38°43' W 009°07'0 0.0
2019-Sep-13 11:30N 38°43' W 009°07'0 0.0
2019-Sep-13 11:00N 38°43' W 009°07'0 0.0
2019-Sep-13 10:29N 38°43' W 009°07'0 0.0
2019-Sep-13 09:59N 38°43' W 009°07'0 0.0
2019-Sep-13 09:29N 38°43' W 009°07'0 0.0
2019-Sep-13 08:59N 38°43' W 009°07'0 0.0
2019-Sep-13 08:29N 38°43' W 009°07'1 2.7
2019-Sep-13 08:00N 38°42' W 009°06'143.5 020 / 141019.027.0 25.025.021.0
2019-Sep-13 07:58N 38°43' W 009°07'0 0.0
2019-Sep-13 07:29N 38°43' W 009°07'0 0.0
2019-Sep-13 07:00N 38°43' W 009°07'0 0.0
2019-Sep-13 06:30N 38°43' W 009°07'0 0.0
2019-Sep-13 06:00N 38°43' W 009°07'1 2.0
2019-Sep-13 05:30N 38°42' W 009°08'5 9.3
2019-Sep-13 05:00N 38°41' W 009°14'611.7
2019-Sep-13 04:31N 38°38' W 009°21'713.7
2019-Sep-13 04:01N 38°37' W 009°29'714.7
2019-Sep-13 03:31N 38°38' W 009°38'612.0
2019-Sep-13 03:00N 38°44' W 009°42'713.6
2019-Sep-13 02:30N 38°50' W 009°43'1414.1
2019-Sep-13 01:30N 39°04' W 009°45'714.1
2019-Sep-13 01:00N 39°11' W 009°46'714.2
2019-Sep-13 00:30N 39°18' W 009°47'714.4
2019-Sep-13 00:00N 39°26' W 009°47'814.7
2019-Sep-12 23:29N 39°33' W 009°48'714.7
2019-Sep-12 23:00N 39°40' W 009°48'2151.3
2019-Sep-12 23:00N 39°42' W 009°48'611.6 010 / 151022.010.8 23.010.322.0
2019-Sep-12 22:30N 39°48' W 009°49'714.3
2019-Sep-12 22:00N 39°55' W 009°50'7480.7
2019-Sep-12 22:00N 39°48' W 009°48'1428.9 010 / 221022.027.0 20.0 8.621.0
2019-Sep-12 21:30N 40°02' W 009°52'714.3
2019-Sep-12 21:00N 40°09' W 009°53'5324.9
2019-Sep-12 21:00N 40°12' W 009°48'510.2 010 / 211013.027.0 21.021.019.0
2019-Sep-12 20:29N 40°16' W 009°52'815.2
2019-Sep-12 19:59N 40°24' W 009°52'915.2
2019-Sep-12 19:25N 40°33' W 009°53'615.6
2019-Sep-12 19:00N 40°39' W 009°53'6913.8
2019-Sep-12 14:00N 41°48' W 010°00'1818.0 020 / 141025.027.0 20.020.018.0
2019-Sep-12 13:00N 42°06' W 010°00'11913.2 040 / 151026.027.0 17.011.518.0
2019-Sep-12 04:00N 43°48' W 008°36'24581.8 070 / 181027.027.0
2019-Sep-12 01:00N 43°18' W 003°00'7813.0 090 / 161025.0 0.3 17.0 7.020.0
2019-Sep-11 19:00N 43°42' W 004°42'5121.6 040 / 71029.027.0 19.019.022.0
2019-Sep-11 16:38N 43°35' W 003°32'220.4
2019-Sep-11 16:30N 43°34' W 003°29'1019.9
2019-Sep-11 16:00N 43°30' W 003°17'918.4
2019-Sep-11 15:30N 43°24' W 003°06'510.3
2019-Sep-11 15:00N 43°20' W 003°02'0 0.0
2019-Sep-11 14:28N 43°20' W 003°02'0 0.0
2019-Sep-11 13:58N 43°20' W 003°02'0 0.0
2019-Sep-11 13:28N 43°20' W 003°02'0 0.0
2019-Sep-11 12:58N 43°20' W 003°02'0 0.0
2019-Sep-11 12:22N 43°20' W 003°02'0 0.0
2019-Sep-11 11:58N 43°20' W 003°02'0 0.0
2019-Sep-11 11:28N 43°20' W 003°02'0 0.0
2019-Sep-11 11:00N 43°20' W 003°02'3181.2
2019-Sep-11 11:00N 43°18' W 003°00'3 5.6 340 / 151022.027.0 19.0 9.618.0
2019-Sep-11 10:30N 43°20' W 003°02'0 0.0
2019-Sep-11 10:00N 43°20' W 003°02'3177.9
2019-Sep-11 10:00N 43°18' W 003°00'3 5.6 340 / 151026.027.0 21.021.020.0
2019-Sep-11 09:30N 43°20' W 003°02'0 0.0
2019-Sep-11 08:54N 43°20' W 003°02'0 0.0
2019-Sep-11 08:30N 43°20' W 003°02'0 0.0
2019-Sep-11 08:00N 43°20' W 003°02'0 0.0
2019-Sep-11 07:30N 43°20' W 003°02'0 0.0
2019-Sep-11 06:58N 43°20' W 003°02'0 0.0
2019-Sep-11 06:26N 43°20' W 003°02'  

Dump ship's entire track history